Time;durP1;ratioP1;P1;durP2;ratioP2;P2;SDS_P1;SDS_P2;PMS_P1;PMS_P2;Temp;Humidity;BMP_temperature;BMP_pressure;BME280_temperature;BME280_humidity;BME280_pressure;Samples;Min_cycle;Max_cycle;Signal;HPM_P1;HPM_P2
2022/12/18 00:01:50;;;;;;;66.90;52.25;;;;;;;;;;5102376;28;20448;-75
2022/12/18 00:04:21;;;;;;;66.22;52.92;;;;;;;;;;5099965;28;20038;-74
2022/12/18 00:06:46;;;;;;;72.07;54.80;;;;;;;;;;5091442;28;20043;-74
2022/12/18 00:09:12;;;;;;;79.70;64.50;;;;;;;;;;5093209;28;20058;-74
2022/12/18 00:11:37;;;;;;;68.93;55.20;;;;;;;;;;5097752;28;20081;-74
2022/12/18 00:14:02;;;;;;;78.57;58.20;;;;;;;;;;5102693;28;20031;-76
2022/12/18 00:16:29;;;;;;;92.00;71.22;;;;;;;;;;5092414;28;20783;-74
2022/12/18 00:18:59;;;;;;;92.72;67.22;;;;;;;;;;5100169;28;20027;-75
2022/12/18 00:21:24;;;;;;;92.72;66.32;;;;;;;;;;5070786;28;20423;-75
2022/12/18 00:23:50;;;;;;;91.18;64.43;;;;;;;;;;5083490;28;20122;-75
2022/12/18 00:26:36;;;;;;;84.40;63.42;;;;;;;;;;5101326;28;20027;-74
2022/12/18 00:29:03;;;;;;;74.35;57.28;;;;;;;;;;5096949;28;20043;-74
2022/12/18 00:31:28;;;;;;;96.47;68.47;;;;;;;;;;5087900;28;20363;-75
2022/12/18 00:33:55;;;;;;;94.10;67.95;;;;;;;;;;5081040;28;20043;-76
2022/12/18 00:36:21;;;;;;;119.13;84.00;;;;;;;;;;5093163;28;20358;-74
2022/12/18 00:38:47;;;;;;;150.60;103.32;;;;;;;;;;5097439;27;20028;-74
2022/12/18 00:42:55;;;;;;;142.77;102.68;;;;;;;;;;5106400;27;20034;-75
2022/12/18 00:43:59;;;;;;;115.10;83.70;;;;;;;;;;5104629;27;20114;-74
2022/12/18 00:46:24;;;;;;;109.68;79.32;;;;;;;;;;5104078;27;20095;-75
2022/12/18 00:48:50;;;;;;;101.20;73.20;;;;;;;;;;5101828;27;20030;-76
2022/12/18 00:51:15;;;;;;;102.18;73.10;;;;;;;;;;5074012;28;20112;-75
2022/12/18 00:53:41;;;;;;;79.22;60.17;;;;;;;;;;5078540;27;20096;-75
2022/12/18 00:56:06;;;;;;;79.50;58.70;;;;;;;;;;5105733;27;20020;-75
2022/12/18 00:58:31;;;;;;;70.07;55.05;;;;;;;;;;5087495;28;20030;-74
2022/12/18 01:00:57;;;;;;;73.47;56.50;;;;;;;;;;5104898;27;20031;-75
2022/12/18 01:03:22;;;;;;;71.15;53.75;;;;;;;;;;5105903;27;20038;-77
2022/12/18 01:05:47;;;;;;;68.45;51.55;;;;;;;;;;5101650;27;20331;-74
2022/12/18 01:08:13;;;;;;;69.90;53.15;;;;;;;;;;5093059;27;20053;-74
2022/12/18 01:10:41;;;;;;;65.50;52.75;;;;;;;;;;5097194;27;20115;-74
2022/12/18 01:13:07;;;;;;;85.25;61.65;;;;;;;;;;5094713;27;20054;-75
2022/12/18 01:15:32;;;;;;;87.57;62.15;;;;;;;;;;5106346;27;20031;-74
2022/12/18 01:17:57;;;;;;;71.28;52.83;;;;;;;;;;5104778;27;20106;-76
2022/12/18 01:20:23;;;;;;;62.38;50.00;;;;;;;;;;5089159;27;20043;-74
2022/12/18 01:22:48;;;;;;;65.40;51.65;;;;;;;;;;5096246;27;20015;-74
2022/12/18 01:25:13;;;;;;;66.22;51.17;;;;;;;;;;5099904;27;20024;-76
2022/12/18 01:27:39;;;;;;;64.97;49.95;;;;;;;;;;5104599;27;20103;-74
2022/12/18 01:30:04;;;;;;;63.92;49.58;;;;;;;;;;5105489;27;20421;-75
2022/12/18 01:32:30;;;;;;;64.50;51.25;;;;;;;;;;5098224;28;20502;-75
2022/12/18 01:34:56;;;;;;;61.17;49.30;;;;;;;;;;5095845;27;20027;-75
2022/12/18 01:37:21;;;;;;;61.67;48.75;;;;;;;;;;5099319;27;20518;-74
2022/12/18 01:39:47;;;;;;;67.82;53.55;;;;;;;;;;5095247;27;20023;-76
2022/12/18 01:42:13;;;;;;;71.65;53.92;;;;;;;;;;5106070;27;20034;-76
2022/12/18 01:44:55;;;;;;;65.30;53.22;;;;;;;;;;5104055;27;20032;-76
2022/12/18 01:47:20;;;;;;;92.85;63.95;;;;;;;;;;5103841;27;20018;-76
2022/12/18 01:49:45;;;;;;;76.32;60.50;;;;;;;;;;5104149;27;20031;-76
2022/12/18 01:52:11;;;;;;;68.88;53.95;;;;;;;;;;5100924;28;20027;-77
2022/12/18 01:54:36;;;;;;;66.60;53.63;;;;;;;;;;5093335;27;20031;-76
2022/12/18 01:57:01;;;;;;;77.03;56.20;;;;;;;;;;5104232;27;20059;-77
2022/12/18 01:59:27;;;;;;;69.32;54.78;;;;;;;;;;5104543;27;20035;-76
2022/12/18 02:01:53;;;;;;;68.05;52.10;;;;;;;;;;5104556;27;20031;-75
2022/12/18 02:04:20;;;;;;;64.97;50.95;;;;;;;;;;5103350;27;20043;-75
2022/12/18 02:06:46;;;;;;;66.03;53.20;;;;;;;;;;5102817;27;20168;-76
2022/12/18 02:09:14;;;;;;;71.90;57.72;;;;;;;;;;5090113;27;20110;-77
2022/12/18 02:12:12;;;;;;;70.07;57.65;;;;;;;;;;5096468;27;20024;-75
2022/12/18 02:14:43;;;;;;;74.82;58.88;;;;;;;;;;5056870;28;20047;-76
2022/12/18 02:17:11;;;;;;;71.93;56.42;;;;;;;;;;5034777;28;20044;-76
2022/12/18 02:19:55;;;;;;;73.95;57.53;;;;;;;;;;5053181;28;20119;-76
2022/12/18 02:22:23;;;;;;;72.25;56.10;;;;;;;;;;5051317;28;20063;-76
2022/12/18 02:25:13;;;;;;;68.45;55.45;;;;;;;;;;5062278;28;20040;-75
2022/12/18 02:27:39;;;;;;;68.10;54.08;;;;;;;;;;5048053;28;20047;-76
2022/12/18 02:30:05;;;;;;;73.65;58.95;;;;;;;;;;5060199;28;20032;-76
2022/12/18 02:32:33;;;;;;;68.43;57.35;;;;;;;;;;5058958;28;20041;-77
2022/12/18 02:34:59;;;;;;;66.30;55.03;;;;;;;;;;5041665;28;20039;-75
2022/12/18 02:37:25;;;;;;;69.13;56.70;;;;;;;;;;5047889;28;20359;-75
2022/12/18 02:39:52;;;;;;;67.75;53.60;;;;;;;;;;5051316;28;20667;-75
2022/12/18 02:42:18;;;;;;;68.35;55.33;;;;;;;;;;5048582;28;20039;-75
2022/12/18 02:44:45;;;;;;;71.97;60.15;;;;;;;;;;5056979;28;20048;-75
2022/12/18 02:47:14;;;;;;;73.45;57.97;;;;;;;;;;5061182;28;20410;-78
2022/12/18 02:49:56;;;;;;;66.00;56.33;;;;;;;;;;5070691;28;20084;-74
2022/12/18 02:52:40;;;;;;;67.32;54.58;;;;;;;;;;5102153;27;20028;-74
2022/12/18 02:55:26;;;;;;;73.90;56.92;;;;;;;;;;5101691;28;20023;-75
2022/12/18 02:57:58;;;;;;;70.97;55.30;;;;;;;;;;5073272;28;20346;-74
2022/12/18 03:00:33;;;;;;;61.15;51.50;;;;;;;;;;5089111;27;20027;-76
2022/12/18 03:03:02;;;;;;;61.58;51.65;;;;;;;;;;5103664;27;20030;-76
2022/12/18 03:05:33;;;;;;;62.33;50.55;;;;;;;;;;5102110;27;20023;-75
2022/12/18 03:08:02;;;;;;;60.08;50.30;;;;;;;;;;5101155;27;20051;-75
2022/12/18 03:10:29;;;;;;;63.33;51.47;;;;;;;;;;5095666;27;20114;-76
2022/12/18 03:12:58;;;;;;;63.38;52.17;;;;;;;;;;5079914;28;20035;-75
2022/12/18 03:15:27;;;;;;;66.13;53.45;;;;;;;;;;5076054;28;20118;-75
2022/12/18 03:17:57;;;;;;;65.80;54.77;;;;;;;;;;5091021;28;20474;-75
2022/12/18 03:20:24;;;;;;;64.32;53.35;;;;;;;;;;5095695;28;20445;-75
2022/12/18 03:22:53;;;;;;;58.30;50.72;;;;;;;;;;5079876;28;20077;-75
2022/12/18 03:25:19;;;;;;;58.55;49.88;;;;;;;;;;5101817;28;20016;-76
2022/12/18 03:27:47;;;;;;;60.78;49.35;;;;;;;;;;5104619;28;20015;-74
2022/12/18 03:30:13;;;;;;;54.22;44.72;;;;;;;;;;5092604;28;20530;-77
2022/12/18 03:32:50;;;;;;;54.78;45.92;;;;;;;;;;5093864;28;20046;-74
2022/12/18 03:35:18;;;;;;;56.72;45.72;;;;;;;;;;5104076;28;20034;-75
2022/12/18 03:37:44;;;;;;;58.08;48.20;;;;;;;;;;5090765;28;20064;-74
2022/12/18 03:40:09;;;;;;;66.25;54.85;;;;;;;;;;5099590;28;20016;-76
2022/12/18 03:42:58;;;;;;;60.40;51.08;;;;;;;;;;5101469;28;20327;-73
2022/12/18 03:45:27;;;;;;;68.53;54.67;;;;;;;;;;5097531;28;20058;-74
2022/12/18 03:47:58;;;;;;;64.00;51.27;;;;;;;;;;5093419;28;20582;-74
2022/12/18 03:50:30;;;;;;;63.70;52.25;;;;;;;;;;5101851;28;20297;-74
2022/12/18 03:53:17;;;;;;;69.03;57.20;;;;;;;;;;5100714;28;20032;-74
2022/12/18 03:55:43;;;;;;;66.70;54.63;;;;;;;;;;5103109;28;20176;-75
2022/12/18 03:58:09;;;;;;;62.92;51.83;;;;;;;;;;5098011;28;21018;-74
2022/12/18 04:00:35;;;;;;;62.40;52.38;;;;;;;;;;5093952;28;20033;-74
2022/12/18 04:03:01;;;;;;;64.55;51.42;;;;;;;;;;5083767;28;20505;-73
2022/12/18 04:05:27;;;;;;;63.58;51.65;;;;;;;;;;5102007;28;20146;-74
2022/12/18 04:07:53;;;;;;;64.13;53.22;;;;;;;;;;5100690;28;20130;-72
2022/12/18 04:10:19;;;;;;;70.80;58.25;;;;;;;;;;5084414;28;20477;-73
2022/12/18 04:12:44;;;;;;;71.95;57.63;;;;;;;;;;5102000;28;20040;-73
2022/12/18 04:15:10;;;;;;;67.80;56.40;;;;;;;;;;5102252;27;20104;-74
2022/12/18 04:17:36;;;;;;;67.63;54.45;;;;;;;;;;5096087;28;20023;-73
2022/12/18 04:20:01;;;;;;;66.78;56.03;;;;;;;;;;5098309;27;20079;-74
2022/12/18 04:22:27;;;;;;;66.65;54.95;;;;;;;;;;5100056;27;20020;-73
2022/12/18 04:24:52;;;;;;;63.85;52.35;;;;;;;;;;5105276;27;20027;-72
2022/12/18 04:27:18;;;;;;;62.63;50.67;;;;;;;;;;5105526;27;20023;-74
2022/12/18 04:29:43;;;;;;;64.50;49.50;;;;;;;;;;5087941;28;20035;-74
2022/12/18 04:32:08;;;;;;;63.38;52.63;;;;;;;;;;5107142;27;20110;-74
2022/12/18 04:34:34;;;;;;;60.95;48.10;;;;;;;;;;5104840;27;20066;-74
2022/12/18 04:36:59;;;;;;;57.00;45.65;;;;;;;;;;5088860;28;20032;-74
2022/12/18 04:39:25;;;;;;;59.42;49.65;;;;;;;;;;5087373;28;20028;-75
2022/12/18 04:41:50;;;;;;;58.83;46.55;;;;;;;;;;5087044;28;20019;-73
2022/12/18 04:44:15;;;;;;;67.38;52.88;;;;;;;;;;5086510;28;20087;-75
2022/12/18 04:46:41;;;;;;;62.63;48.80;;;;;;;;;;5107677;27;20035;-75
2022/12/18 04:49:06;;;;;;;54.05;44.40;;;;;;;;;;5104866;27;20027;-75
2022/12/18 04:51:32;;;;;;;58.92;47.58;;;;;;;;;;5089552;27;20462;-75
2022/12/18 04:53:57;;;;;;;58.92;46.65;;;;;;;;;;5088030;28;20449;-74
2022/12/18 04:56:22;;;;;;;63.35;48.72;;;;;;;;;;5106337;27;20020;-74
2022/12/18 04:58:48;;;;;;;78.03;53.90;;;;;;;;;;5104196;28;20015;-75
2022/12/18 05:01:14;;;;;;;60.45;46.63;;;;;;;;;;5103949;28;20103;-75
2022/12/18 05:03:40;;;;;;;57.92;46.80;;;;;;;;;;5105678;27;20146;-75
2022/12/18 05:06:06;;;;;;;57.25;45.53;;;;;;;;;;5104673;27;20489;-75
2022/12/18 05:08:32;;;;;;;59.72;45.75;;;;;;;;;;5105257;27;20024;-74
2022/12/18 05:11:05;;;;;;;57.42;45.38;;;;;;;;;;5104871;27;20035;-74
2022/12/18 05:13:30;;;;;;;59.42;45.78;;;;;;;;;;5087735;28;20100;-76
2022/12/18 05:15:56;;;;;;;64.57;46.88;;;;;;;;;;5104302;27;20019;-72
2022/12/18 05:18:22;;;;;;;55.33;42.95;;;;;;;;;;5099900;27;20027;-74
2022/12/18 05:20:48;;;;;;;56.15;44.30;;;;;;;;;;5094083;27;20057;-74
2022/12/18 05:23:14;;;;;;;92.55;60.97;;;;;;;;;;5103928;27;20024;-74
2022/12/18 05:25:39;;;;;;;126.47;73.60;;;;;;;;;;5088756;27;20088;-74
2022/12/18 05:28:04;;;;;;;106.70;64.40;;;;;;;;;;5105657;27;20035;-75
2022/12/18 05:30:30;;;;;;;68.30;48.92;;;;;;;;;;5086060;27;20027;-73
2022/12/18 05:32:55;;;;;;;137.75;76.97;;;;;;;;;;5104413;27;20059;-75
2022/12/18 05:35:21;;;;;;;121.35;78.63;;;;;;;;;;5098420;27;20050;-74
2022/12/18 05:37:46;;;;;;;78.13;57.53;;;;;;;;;;5098070;27;20412;-73
2022/12/18 05:40:12;;;;;;;56.17;44.38;;;;;;;;;;5104105;27;20042;-73
2022/12/18 05:42:37;;;;;;;65.10;49.53;;;;;;;;;;5102372;27;20166;-74
2022/12/18 05:45:03;;;;;;;61.47;48.80;;;;;;;;;;5086497;28;20039;-73
2022/12/18 05:47:28;;;;;;;59.17;47.03;;;;;;;;;;5103664;27;20023;-74
2022/12/18 05:49:54;;;;;;;55.72;44.90;;;;;;;;;;5103857;27;20142;-74
2022/12/18 05:52:19;;;;;;;59.20;47.00;;;;;;;;;;5103970;27;20414;-73
2022/12/18 05:54:44;;;;;;;61.13;49.75;;;;;;;;;;5086249;28;20413;-76
2022/12/18 05:57:10;;;;;;;63.45;48.80;;;;;;;;;;5102977;27;20031;-75
2022/12/18 05:59:35;;;;;;;56.15;45.35;;;;;;;;;;5104917;27;20016;-74
2022/12/18 06:02:00;;;;;;;58.00;47.00;;;;;;;;;;5103941;27;20028;-75
2022/12/18 06:04:27;;;;;;;63.33;46.85;;;;;;;;;;5102832;27;20491;-76
2022/12/18 06:06:52;;;;;;;60.10;47.53;;;;;;;;;;5103536;27;20019;-76
2022/12/18 06:09:18;;;;;;;61.40;46.85;;;;;;;;;;5085379;28;20027;-75
2022/12/18 06:11:43;;;;;;;63.80;49.83;;;;;;;;;;5085116;28;20031;-78
2022/12/18 06:14:09;;;;;;;63.25;48.40;;;;;;;;;;5070659;28;20031;-76
2022/12/18 06:16:35;;;;;;;62.88;48.30;;;;;;;;;;5103155;27;20028;-75
2022/12/18 06:19:01;;;;;;;60.58;47.60;;;;;;;;;;5086525;28;20080;-74
2022/12/18 06:21:27;;;;;;;60.15;47.40;;;;;;;;;;5104562;27;20030;-75
2022/12/18 06:23:52;;;;;;;63.17;48.53;;;;;;;;;;5103983;27;20114;-77
2022/12/18 06:26:18;;;;;;;64.85;49.50;;;;;;;;;;5102483;27;20126;-75
2022/12/18 06:28:43;;;;;;;58.53;46.90;;;;;;;;;;5094430;27;20036;-77
2022/12/18 06:31:08;;;;;;;60.92;47.45;;;;;;;;;;5087837;28;20124;-75
2022/12/18 06:33:34;;;;;;;59.53;44.92;;;;;;;;;;5087932;27;20464;-76
2022/12/18 06:36:04;;;;;;;59.58;48.05;;;;;;;;;;5086644;27;20024;-76
2022/12/18 06:38:29;;;;;;;;;;;;;;;;;;5087612;28;20466;-75
2022/12/18 06:40:55;;;;;;;65.97;49.87;;;;;;;;;;5086875;28;19947;-73
2022/12/18 06:43:20;;;;;;;60.10;47.65;;;;;;;;;;5089751;27;20024;-75
2022/12/18 06:45:49;;;;;;;62.25;48.90;;;;;;;;;;5089853;27;20511;-72
2022/12/18 06:48:14;;;;;;;65.72;49.10;;;;;;;;;;5102125;27;20035;-76
2022/12/18 06:50:42;;;;;;;59.33;45.13;;;;;;;;;;5097186;28;20035;-75
2022/12/18 06:53:07;;;;;;;72.90;47.28;;;;;;;;;;5077496;27;20033;-75
2022/12/18 06:55:32;;;;;;;64.75;53.15;;;;;;;;;;5103151;27;20102;-76
2022/12/18 06:57:58;;;;;;;62.08;49.45;;;;;;;;;;5091840;27;20038;-76
2022/12/18 07:00:23;;;;;;;88.75;70.32;;;;;;;;;;5101806;27;20038;-77
2022/12/18 07:02:48;;;;;;;99.80;81.82;;;;;;;;;;5102782;27;20015;-77
2022/12/18 07:05:14;;;;;;;70.30;59.03;;;;;;;;;;5104234;27;20531;-76
2022/12/18 07:07:39;;;;;;;66.53;57.35;;;;;;;;;;5105224;27;20487;-76
2022/12/18 07:10:04;;;;;;;58.20;48.55;;;;;;;;;;5102273;28;20339;-76
2022/12/18 07:12:30;;;;;;;65.25;51.00;;;;;;;;;;5097676;28;20368;-76
2022/12/18 07:14:55;;;;;;;64.15;53.88;;;;;;;;;;5095119;28;20027;-75
2022/12/18 07:17:21;;;;;;;75.75;66.82;;;;;;;;;;5085647;28;20099;-76
2022/12/18 07:19:46;;;;;;;61.88;50.38;;;;;;;;;;5103629;27;20066;-73
2022/12/18 07:22:11;;;;;;;67.28;51.70;;;;;;;;;;5103304;28;20457;-72
2022/12/18 07:24:37;;;;;;;70.45;53.50;;;;;;;;;;5101305;28;20088;-73
2022/12/18 07:27:02;;;;;;;69.32;52.67;;;;;;;;;;5085968;28;20032;-77
2022/12/18 07:29:28;;;;;;;59.45;49.05;;;;;;;;;;5103303;28;20020;-76
2022/12/18 07:31:53;;;;;;;54.20;44.05;;;;;;;;;;5102702;28;20073;-75
2022/12/18 07:34:19;;;;;;;52.55;41.78;;;;;;;;;;5084098;28;20035;-73
2022/12/18 07:36:44;;;;;;;51.35;41.08;;;;;;;;;;5091745;28;20442;-74
2022/12/18 07:39:10;;;;;;;62.38;50.00;;;;;;;;;;5104961;28;20090;-75
2022/12/18 07:41:36;;;;;;;62.28;49.75;;;;;;;;;;5103057;28;20143;-76
2022/12/18 07:44:01;;;;;;;61.20;46.70;;;;;;;;;;5092982;28;20110;-75
2022/12/18 07:46:26;;;;;;;62.65;49.30;;;;;;;;;;5090595;27;20722;-76
2022/12/18 07:48:52;;;;;;;57.78;46.88;;;;;;;;;;5091873;28;20077;-76
2022/12/18 07:51:18;;;;;;;59.33;46.50;;;;;;;;;;5093427;27;20020;-75
2022/12/18 07:53:44;;;;;;;55.15;43.85;;;;;;;;;;5097206;27;20036;-74
2022/12/18 07:56:11;;;;;;;73.95;56.70;;;;;;;;;;5074864;28;20430;-76
2022/12/18 07:58:36;;;;;;;75.45;61.53;;;;;;;;;;5079431;27;20462;-76
2022/12/18 08:01:06;;;;;;;79.00;59.28;;;;;;;;;;5072569;28;20027;-76
2022/12/18 08:03:31;;;;;;;55.40;45.65;;;;;;;;;;5090264;27;20080;-77
2022/12/18 08:06:04;;;;;;;78.28;62.65;;;;;;;;;;5090685;27;20031;-75
2022/12/18 08:08:29;;;;;;;93.80;78.43;;;;;;;;;;5077980;28;20883;-76
2022/12/18 08:10:55;;;;;;;126.00;105.20;;;;;;;;;;5092290;27;20027;-77
2022/12/18 08:13:20;;;;;;;113.03;94.07;;;;;;;;;;5072960;27;20418;-78
2022/12/18 08:15:46;;;;;;;171.75;119.75;;;;;;;;;;5091433;28;20024;-75
2022/12/18 08:18:11;;;;;;;256.35;128.35;;;;;;;;;;5099661;28;20031;-76
2022/12/18 08:20:36;;;;;;;108.97;93.70;;;;;;;;;;5108772;27;20543;-79
2022/12/18 08:23:02;;;;;;;98.60;83.53;;;;;;;;;;5100757;27;20040;-80
2022/12/18 08:25:27;;;;;;;78.47;68.18;;;;;;;;;;5100444;27;20042;-81
2022/12/18 08:27:52;;;;;;;85.28;73.22;;;;;;;;;;5105820;28;20078;-78
2022/12/18 08:30:18;;;;;;;66.45;56.25;;;;;;;;;;5108329;27;20024;-79
2022/12/18 08:32:43;;;;;;;73.82;60.75;;;;;;;;;;5090693;27;20347;-78
2022/12/18 08:35:09;;;;;;;105.47;89.22;;;;;;;;;;5089847;27;20035;-78
2022/12/18 08:37:34;;;;;;;72.07;60.50;;;;;;;;;;5092570;27;20062;-79
2022/12/18 08:39:59;;;;;;;59.30;49.28;;;;;;;;;;5099424;27;20466;-78
2022/12/18 08:45:09;;;;;;;67.93;56.10;;;;;;;;;;5091416;27;20066;-80
2022/12/18 08:47:34;;;;;;;77.75;62.45;;;;;;;;;;5099272;27;20055;-79
2022/12/18 08:49:59;;;;;;;63.83;53.30;;;;;;;;;;5108499;27;20489;-78
2022/12/18 08:52:25;;;;;;;63.05;52.65;;;;;;;;;;5107553;27;20077;-79
2022/12/18 08:54:50;;;;;;;89.20;71.88;;;;;;;;;;5101657;27;20047;-78
2022/12/18 08:57:15;;;;;;;60.35;45.47;;;;;;;;;;5089338;27;20020;-79
2022/12/18 08:59:41;;;;;;;86.38;66.53;;;;;;;;;;5088641;27;20124;-81
2022/12/18 09:02:08;;;;;;;71.40;55.97;;;;;;;;;;5084142;27;20096;-79
2022/12/18 09:04:33;;;;;;;81.95;62.17;;;;;;;;;;5099651;27;20110;-79
2022/12/18 09:06:58;;;;;;;87.63;71.72;;;;;;;;;;5097141;27;20122;-77
2022/12/18 09:09:24;;;;;;;109.18;89.38;;;;;;;;;;5092367;27;20054;-76
2022/12/18 09:11:49;;;;;;;134.18;100.47;;;;;;;;;;5105038;27;20058;-76
2022/12/18 09:14:15;;;;;;;102.85;78.47;;;;;;;;;;5105133;28;20378;-76
2022/12/18 09:16:40;;;;;;;109.30;82.47;;;;;;;;;;5106819;27;20112;-80
2022/12/18 09:19:05;;;;;;;91.28;70.75;;;;;;;;;;5086597;28;20030;-78
2022/12/18 09:21:32;;;;;;;65.05;50.15;;;;;;;;;;5100747;27;20392;-80
2022/12/18 09:23:57;;;;;;;76.03;62.35;;;;;;;;;;5074342;27;20454;-79
2022/12/18 09:26:23;;;;;;;67.70;53.35;;;;;;;;;;5103919;27;20019;-77
2022/12/18 09:28:49;;;;;;;103.18;80.25;;;;;;;;;;5107925;27;20024;-78
2022/12/18 09:31:14;;;;;;;65.35;53.53;;;;;;;;;;5108051;27;20423;-78
2022/12/18 09:33:40;;;;;;;56.15;46.30;;;;;;;;;;5104286;27;20069;-79
2022/12/18 09:36:06;;;;;;;77.97;65.65;;;;;;;;;;5105670;27;20147;-76
2022/12/18 09:38:32;;;;;;;80.53;68.55;;;;;;;;;;5106238;27;20095;-78
2022/12/18 09:41:00;;;;;;;65.05;55.13;;;;;;;;;;5105692;27;20107;-81
2022/12/18 09:43:48;;;;;;;69.18;55.88;;;;;;;;;;5105650;27;20026;-80
2022/12/18 09:46:19;;;;;;;50.75;42.33;;;;;;;;;;5105448;27;20038;-81
2022/12/18 09:48:46;;;;;;;59.53;51.20;;;;;;;;;;5104558;27;20027;-79
2022/12/18 09:51:24;;;;;;;62.58;55.10;;;;;;;;;;5105565;27;20029;-78
2022/12/18 09:53:55;;;;;;;49.97;42.53;;;;;;;;;;5086177;27;20045;-78
2022/12/18 09:56:22;;;;;;;50.50;41.67;;;;;;;;;;5103359;27;20027;-78
2022/12/18 09:58:48;;;;;;;50.85;40.42;;;;;;;;;;5104682;27;20346;-78
2022/12/18 10:01:16;;;;;;;45.80;36.63;;;;;;;;;;5106125;27;20038;-78
2022/12/18 10:03:41;;;;;;;45.85;37.90;;;;;;;;;;5094341;27;20088;-79
2022/12/18 10:06:13;;;;;;;92.95;69.22;;;;;;;;;;5104913;27;20027;-77
2022/12/18 10:08:50;;;;;;;65.85;51.42;;;;;;;;;;5099380;27;20059;-78
2022/12/18 10:11:28;;;;;;;66.93;54.50;;;;;;;;;;5092762;27;20031;-78
2022/12/18 10:14:13;;;;;;;46.33;38.78;;;;;;;;;;5086335;28;20044;-77
2022/12/18 10:16:53;;;;;;;42.50;36.05;;;;;;;;;;5083649;28;20333;-78
2022/12/18 10:19:37;;;;;;;45.67;38.90;;;;;;;;;;5083989;28;20028;-77
2022/12/18 10:22:12;;;;;;;39.10;32.95;;;;;;;;;;5086538;28;20064;-78
2022/12/18 10:24:48;;;;;;;43.78;36.83;;;;;;;;;;5083034;28;20051;-78
2022/12/18 10:27:15;;;;;;;39.20;31.45;;;;;;;;;;5085693;28;20020;-76
2022/12/18 10:29:41;;;;;;;36.55;30.67;;;;;;;;;;5085116;28;20020;-77
2022/12/18 10:32:08;;;;;;;39.70;31.38;;;;;;;;;;5086068;28;20517;-77
2022/12/18 10:34:34;;;;;;;33.10;27.10;;;;;;;;;;5083942;28;20439;-79
2022/12/18 10:37:00;;;;;;;52.03;41.45;;;;;;;;;;5083785;28;20023;-78
2022/12/18 10:39:26;;;;;;;42.58;34.38;;;;;;;;;;5083866;28;20020;-79
2022/12/18 10:41:51;;;;;;;47.97;37.97;;;;;;;;;;5086388;28;20020;-78
2022/12/18 10:44:26;;;;;;;58.10;46.58;;;;;;;;;;5072299;28;20453;-77
2022/12/18 10:47:02;;;;;;;45.85;36.50;;;;;;;;;;5070490;28;20474;-78
2022/12/18 10:49:29;;;;;;;48.53;38.67;;;;;;;;;;5072604;28;20032;-78
2022/12/18 10:52:18;;;;;;;49.72;41.90;;;;;;;;;;5074041;28;20027;-78
2022/12/18 10:55:01;;;;;;;59.23;48.60;;;;;;;;;;5084060;28;20045;-77
2022/12/18 10:57:35;;;;;;;62.97;50.95;;;;;;;;;;5068428;28;20039;-75
2022/12/18 11:00:19;;;;;;;53.47;46.47;;;;;;;;;;5077213;28;20023;-74
2022/12/18 11:02:44;;;;;;;46.08;37.55;;;;;;;;;;5074709;28;20044;-74
2022/12/18 11:05:30;;;;;;;40.60;35.45;;;;;;;;;;5075209;28;20086;-75
2022/12/18 11:07:56;;;;;;;45.03;37.10;;;;;;;;;;5082511;28;20451;-75
2022/12/18 11:10:23;;;;;;;49.55;38.65;;;;;;;;;;5080792;28;20028;-72
2022/12/18 11:12:48;;;;;;;46.15;36.90;;;;;;;;;;5080537;28;20051;-73
2022/12/18 11:15:28;;;;;;;49.40;39.10;;;;;;;;;;5088436;27;20037;-76
2022/12/18 11:17:53;;;;;;;69.57;55.35;;;;;;;;;;5089473;28;20032;-75
2022/12/18 11:20:18;;;;;;;57.58;44.63;;;;;;;;;;5088607;28;20040;-75
2022/12/18 11:22:54;;;;;;;44.95;39.42;;;;;;;;;;5087418;28;20103;-75
2022/12/18 11:25:19;;;;;;;57.90;44.50;;;;;;;;;;5102030;27;20144;-75
2022/12/18 11:27:52;;;;;;;36.35;29.98;;;;;;;;;;5104844;28;20031;-76
2022/12/18 11:30:21;;;;;;;41.70;35.22;;;;;;;;;;5083909;28;20027;-74
2022/12/18 11:33:05;;;;;;;41.05;33.85;;;;;;;;;;5102935;28;20024;-77
2022/12/18 11:35:30;;;;;;;39.50;32.65;;;;;;;;;;5101912;28;20441;-77
2022/12/18 11:38:02;;;;;;;39.17;33.20;;;;;;;;;;5101376;28;20073;-75
2022/12/18 11:40:34;;;;;;;45.63;37.90;;;;;;;;;;5102281;28;20580;-74
2022/12/18 11:43:06;;;;;;;36.58;30.63;;;;;;;;;;5102518;28;20473;-77
2022/12/18 11:45:36;;;;;;;52.78;42.97;;;;;;;;;;5101659;28;20078;-76
2022/12/18 11:48:05;;;;;;;40.97;32.28;;;;;;;;;;5102506;28;21392;-74
2022/12/18 11:50:36;;;;;;;42.42;34.13;;;;;;;;;;5103977;28;20012;-75
2022/12/18 11:53:02;;;;;;;41.53;36.53;;;;;;;;;;5102668;28;20015;-76
2022/12/18 11:55:31;;;;;;;43.45;35.28;;;;;;;;;;5101972;28;20208;-75
2022/12/18 11:58:15;;;;;;;41.90;34.47;;;;;;;;;;5099708;28;20043;-76
2022/12/18 12:00:46;;;;;;;41.80;34.28;;;;;;;;;;5101631;28;20032;-77
2022/12/18 12:03:11;;;;;;;42.00;35.22;;;;;;;;;;5101608;28;20025;-76
2022/12/18 12:05:54;;;;;;;49.28;42.08;;;;;;;;;;5101309;28;20102;-74
2022/12/18 12:08:32;;;;;;;65.28;51.17;;;;;;;;;;5100756;28;20026;-75
2022/12/18 12:11:04;;;;;;;52.80;43.78;;;;;;;;;;5102235;28;20027;-75
2022/12/18 12:13:41;;;;;;;52.53;43.92;;;;;;;;;;5101030;28;20047;-76
2022/12/18 12:16:09;;;;;;;43.13;37.13;;;;;;;;;;5097162;28;20024;-76
2022/12/18 12:18:35;;;;;;;36.22;30.95;;;;;;;;;;5087263;28;20030;-75
2022/12/18 12:21:06;;;;;;;32.60;27.17;;;;;;;;;;5085546;28;20358;-74
2022/12/18 12:23:39;;;;;;;45.50;32.28;;;;;;;;;;5087940;28;20059;-76
2022/12/18 12:26:10;;;;;;;33.80;28.00;;;;;;;;;;5070241;28;20027;-75
2022/12/18 12:28:44;;;;;;;33.17;28.75;;;;;;;;;;5089208;28;20027;-75
2022/12/18 12:31:22;;;;;;;82.57;65.53;;;;;;;;;;5088870;28;20015;-74
2022/12/18 12:33:53;;;;;;;84.85;72.68;;;;;;;;;;5089033;27;20031;-74
2022/12/18 12:36:18;;;;;;;64.80;52.35;;;;;;;;;;5091234;27;20477;-76
2022/12/18 12:38:50;;;;;;;89.40;69.28;;;;;;;;;;5091639;27;20022;-74
2022/12/18 12:44:05;;;;;;;43.75;38.53;;;;;;;;;;5093612;27;20079;-74
2022/12/18 12:46:32;;;;;;;44.40;35.97;;;;;;;;;;5092971;27;20092;-75
2022/12/18 12:49:18;;;;;;;40.90;33.00;;;;;;;;;;5075053;28;20344;-74
2022/12/18 12:51:45;;;;;;;34.85;27.58;;;;;;;;;;5103008;27;20044;-75
2022/12/18 12:54:16;;;;;;;41.17;30.83;;;;;;;;;;5102834;27;20070;-75
2022/12/18 12:56:57;;;;;;;36.83;28.85;;;;;;;;;;5099137;27;20023;-74
2022/12/18 12:59:23;;;;;;;43.55;35.28;;;;;;;;;;5090929;28;20488;-74
2022/12/18 13:01:54;;;;;;;42.95;33.65;;;;;;;;;;5092071;27;20020;-75
2022/12/18 13:04:38;;;;;;;41.70;31.75;;;;;;;;;;5090521;27;20033;-75
2022/12/18 13:07:10;;;;;;;42.97;35.50;;;;;;;;;;5093008;27;20028;-74
2022/12/18 13:09:55;;;;;;;41.78;33.50;;;;;;;;;;5091587;27;20030;-75
2022/12/18 13:15:21;;;;;;;30.35;25.48;;;;;;;;;;5091211;28;20057;-75
2022/12/18 13:17:46;;;;;;;32.67;28.67;;;;;;;;;;5090801;27;20112;-73
2022/12/18 13:20:13;;;;;;;35.90;30.58;;;;;;;;;;5089108;27;20551;-74
2022/12/18 13:22:44;;;;;;;38.60;33.13;;;;;;;;;;5072081;28;20032;-74
2022/12/18 13:25:28;;;;;;;35.90;30.92;;;;;;;;;;5090950;27;20031;-74
2022/12/18 13:28:11;;;;;;;44.67;39.22;;;;;;;;;;5090966;27;20024;-74
2022/12/18 13:30:50;;;;;;;42.55;35.10;;;;;;;;;;5089359;27;22703;-75
2022/12/18 13:33:18;;;;;;;53.37;44.17;;;;;;;;;;5091755;27;20097;-75
2022/12/18 13:35:46;;;;;;;60.15;46.90;;;;;;;;;;5090710;27;20375;-75
2022/12/18 13:38:30;;;;;;;64.50;48.95;;;;;;;;;;5093962;27;20454;-77
2022/12/18 13:40:56;;;;;;;40.45;35.03;;;;;;;;;;5105146;27;20035;-77
2022/12/18 13:43:21;;;;;;;42.03;33.67;;;;;;;;;;5092607;27;20106;-80
2022/12/18 13:45:49;;;;;;;48.00;36.53;;;;;;;;;;5089805;27;20099;-77
2022/12/18 13:48:18;;;;;;;43.42;36.33;;;;;;;;;;5088705;27;20469;-77
2022/12/18 13:50:48;;;;;;;45.97;36.97;;;;;;;;;;5099166;27;20076;-77
2022/12/18 13:53:22;;;;;;;48.95;36.22;;;;;;;;;;5107288;27;20034;-77
2022/12/18 13:55:48;;;;;;;57.70;42.70;;;;;;;;;;5104460;27;20031;-77
2022/12/18 13:58:14;;;;;;;44.50;33.78;;;;;;;;;;5106022;27;20490;-77
2022/12/18 14:00:42;;;;;;;52.22;36.95;;;;;;;;;;5104216;27;20038;-76
2022/12/18 14:03:19;;;;;;;44.20;34.90;;;;;;;;;;5106731;27;20123;-77
2022/12/18 14:05:45;;;;;;;54.47;39.63;;;;;;;;;;5104970;27;20026;-76
2022/12/18 14:08:15;;;;;;;45.42;33.33;;;;;;;;;;5105043;27;20342;-73
2022/12/18 14:10:41;;;;;;;41.45;33.45;;;;;;;;;;5094697;27;20054;-77
2022/12/18 14:13:08;;;;;;;49.97;40.45;;;;;;;;;;5087435;27;20131;-76
2022/12/18 14:15:44;;;;;;;63.92;48.13;;;;;;;;;;5090650;27;20477;-75
2022/12/18 14:18:09;;;;;;;65.75;47.88;;;;;;;;;;5088037;28;20351;-77
2022/12/18 14:20:34;;;;;;;60.58;50.15;;;;;;;;;;5089302;27;20096;-77
2022/12/18 14:23:00;;;;;;;52.95;44.00;;;;;;;;;;5089035;28;20031;-75
2022/12/18 14:25:26;;;;;;;62.72;49.63;;;;;;;;;;5088651;28;20030;-77
2022/12/18 14:28:07;;;;;;;76.03;57.03;;;;;;;;;;5089088;27;20024;-76
2022/12/18 14:30:35;;;;;;;82.90;64.35;;;;;;;;;;5090151;27;20024;-76
2022/12/18 14:33:05;;;;;;;128.50;103.65;;;;;;;;;;5092880;27;20024;-76